Tropical Cyclones
[Index]
Main Index Home Page Stock Weather Photos Extreme Storms Discussion Storm News and Storm Chasing Reports Tropical Cyclones / Hurricanes / Typhoons Weather Data and Links Wild Fires / Bushfires Weather Observation Techniques Weather Picture Catalogue Tornado Pictures and Reports Stock Video Footage and DVDs for sale
Season 1980-1981 Tropical Cyclone MABEL Track Map
Season 1980-1981 Summaries: [BoM-AU] [JTWC-AU] [JTWC-SIO] [JTWC-SPAC] [JTWC-SH]
<<- Previous TC | BoM 1980-1981 Season | Next TC ->>

click for intensity scale information  Lat/long Grid: Show Hide

 Date Labels: Show Hide

Bureau of Meteorology Tropical Cyclone Data

Name: MABEL
Number: 614 / 198081_07

12 Jan 1981 00:00 UTC to 21 Jan 1981 00:00 UTC

    date/time    lat    long    hPa   cat  kts
1981-01-12 00   11.8   110.1   1004         25          
1981-01-12 06   12.2   111.1   1002         25          
1981-01-12 12   12.4   112.3    999         30          
1981-01-12 18   12.5   113.3    997         30          
1981-01-13 00   12.9   114.1    995    1    35          
1981-01-13 06   13.3   114.8    993    1    40          
1981-01-13 12   13.8   115.6    992    1    40          
1981-01-13 18   14.1   116.6    990    1    40          
1981-01-14 00   14.3   117.4    990    1    45          
1981-01-14 06   14.7   117.8    989    1    45          
1981-01-14 12   15.2   117.9    988    1    50          
1981-01-14 18   15.8   117.9    988    1    60          
1981-01-15 00   16.2   117.8    988    1    60          
1981-01-15 06   16.7   117.7    986    1    60          
1981-01-15 12   17.0   117.5    985    2    60          
1981-01-15 18   17.2   117.3    983    2    60          
1981-01-16 00   17.5   117.2    980    2    55          
1981-01-16 06   17.8   117.0    975    2    70          
1981-01-16 12   17.9   116.8    970    3    80          
1981-01-16 18   18.0   116.5    965    3    80          
1981-01-17 00   18.1   116.2    960    3    80          
1981-01-17 06   18.2   116.0    955    4    90          
1981-01-17 12   18.3   115.7    950    4    95          
1981-01-17 18   18.6   115.2    944    4    100          
1981-01-18 00   18.9   114.8    937    4    110          
1981-01-18 06   19.7   114.0    930    4    110          
1981-01-18 12   20.5   113.3    934    4    110          
1981-01-18 18   21.5   112.8    939    4    110          
1981-01-19 00   22.4   112.4    945    4    100          
1981-01-19 06   23.3   112.2    956    3    90          
1981-01-19 12   24.0   111.9    966    3    80          
1981-01-19 18   24.5   111.4    976    2    65          
1981-01-20 00   24.6   110.8    980    2    55          
1981-01-20 06   24.3   110.1    991    1    45          
1981-01-20 12   24.0   109.6    995    1    35          
1981-01-20 18   23.3   108.9   1000         30          
1981-01-21 00   22.5   108.2   1004         25          
Winds are 10-min average.

Tropical cyclone tracks developed by Michael Bath using data from the Bureau of Meteorology and Google Maps.


[Australian Severe Weather index] [Copyright Notice] [Email Contacts] [Search This Site] [Privacy Policy]
Document: tropical_cyclone_mabel.htm Updated: 4 April 2018